Airfield :
LOGIN :

Register | Disclaimer

   EN    FR    IT 

 










Legend :    VFR   Marginal VFR   IFR   Intensive IFR   Very Intensive IFR
Visi :
Ceiling :
>= 8 km
>= 3000ft
5 to 8 km
1000 to 3000 ft
1500m to 5 km
500 to 1000 ft
800 to 1500m
200 to 500 ft
< 800m
< 200 ft
Symbols :   Thunderstorms  Fog  Heavy snow  Heavy precipitations  Wind > 20 kt
SIGMETs :     Misc.  Thunderstorms  Icing  Turbulence  Mountain Waves  Volcanic Ashes







- Airport Elevation : 23 ft
- IATA code : XFW


EDHI - Hamburg Finkenwerder

CURRENT METAR :
  • 201220Z 06008KT 020V100 CAVOK 20/15 Q1005

EXPIRED METARs :
  • 201150Z 04010KT CAVOK 20/15 Q1005
  • 201120Z 02009KT 360V070 CAVOK 20/14 Q1005
  • 201050Z 04008KT CAVOK 19/13 Q1005
  • 201020Z 05008KT 020V080 CAVOK 19/14 Q1005
  • 200950Z 01007KT 340V050 CAVOK 18/13 Q1005

TAF TAF EDHI
Valid from the 20 at 12:00 until the 20 at 21:00 UTC


201100Z 2012/2021 03008KT 9999 SCT030
PROB30
TEMPO 2019/2021 BKN008
No reported NOTAMs for that airfield.
1 SIGMET reported for the Bremen FIR (EDWW) :
 
Frequent thunderstorms and hail
EDWW SIGMET 1 VALID 201211/201410 EDZF
EDWW BREMEN FIR FRQ TSGR FCST APRX 20NM WID LINE BTN N5137 E01012 - N5123 E01028 TOP FL350 MOV SSW 20KT NC=



MET'MAP, your aeronautical weather chart ! - Copyright ORBIFLY December 2007 - Disclaimer

ORBIFLY MET'MAP TEAM :

Programming & Development : Alexandra Zaïnal
Concept & Development : Baudouin d'Aumeries
Co-Development & Prog : Marc-Olivier Méhu
Technical & hardware support : Manuel Goepfert

Contact : metmap@orbifly.com




SOURCES & CREDITS :

   NOAA